Terminal Aerodrome Forecast
Issued by NWS

Home | Current Version | Previous Version | Text Only | Print | Product List | Glossary On
Versions: 1 2 3 4 5 6 7 8 9 10 11 12 13 14 15 16 17 18 19 20 21 22 23 24 25 26 27
000
FTUS41 KGYX 261133
TAFAUG
TAF
KAUG 261133Z 2612/2712 28007KT P6SM SCT080 BKN200
     FM262000 01008KT 5SM -SHRA BR OVC015
     FM270100 05007KT P6SM OVC025
     FM270800 06007KT P6SM BKN050=

USA.gov is the U.S. government's official web portal to all federal, state and local government web resources and services.